Newark, OH (43058)

5:55 AM EST on December 18, 2014 (GMT -0500)
Aerospace Center | Change Station
CLOSE
Current Station
Personal Weather Station
Location: Heath, OH
Elevation: 903 ft
Nearby Weather Stations

Elev 903 ft 40.02 °N, 82.47 °W | Updated 7 seconds ago

Overcast
Overcast
27.7 °F
Feels Like 28 °F
N
0.0
Wind Variable Wind from WNW
Gusts 0.0 mph

Today
High -- | Low -- °F
--% Chance of Precip.
Yesterday
High -- | Low -- °F
Precip. -- in
7:46 AM 5:06 PM
Waning Crescent, 15% visible
Pressure 30.27 in
Visibility 10.0 miles
Clouds Overcast 2300 ft
Windchill 28 °F
Dew Point 21 °F
Humidity 77%
Rainfall 0.00 in
Snow Depth Not available.
UV 0 out of 12
Pollen .10 out of 12
Air Quality Not available.
Flu Activity Not available.
METAR KVTA 180954Z AUTO 29004KT 10SM OVC023 M02/M07 A3023 RMK AO2 SLP248 T10221072

More Conditions Fewer Conditions

Pressure 30.27 in
Visibility 10.0 miles
Clouds Overcast 2300 ft
Windchill 28 °F
Dew Point 21 °F
Humidity 77%
Rainfall 0.00 in
Snow Depth Not available.
UV 0 out of 12
Pollen .10 out of 12
Air Quality Not available.
Flu Activity Not available.
METAR KVTA 180954Z AUTO 29004KT 10SM OVC023 M02/M07 A3023 RMK AO2 SLP248 T10221072

More Conditions Fewer Conditions

10-Day Weather Forecast

Almanac

Astronomy

Dec. 18, 2014 Rise Set
Actual Time
Civil Twilight
Nautical Twilight
Astronomical Twilight
Moon
Length of Visible Light
Length of Day
Tomorrow will be .
, % of the Moon is Illuminated

Today's Extremes

State Highs State Lows

Community

WunderPhotos

Upload Photos

1,778,917 photos uploaded!

WunderBlogs® & News

Nearby

Air Quality

  Air Quality AQ Index Pollutant
Not available.

Snow Depth

Station Depth Elevation

Earthquake Activity

City Distance Mag. Time & Date
Minimum magnitude displayed is 2.5.

Coastal Water Temperatures

Place Temperature

Nearby Weather Stations